createdAt,value
2017-06-15T00:00:11.527Z,16.20
2017-06-15T00:02:41.036Z,16.10
2017-06-15T00:05:10.681Z,16.00
2017-06-15T00:07:40.362Z,16.00
2017-06-15T00:10:10.080Z,16.00
2017-06-15T00:12:39.739Z,16.10
2017-06-15T00:15:10.191Z,16.20
2017-06-15T00:17:39.863Z,16.10
2017-06-15T00:20:09.547Z,16.10
2017-06-15T00:22:39.215Z,16.10
2017-06-15T00:25:08.910Z,16.10
2017-06-15T00:27:39.457Z,16.10
2017-06-15T00:30:09.155Z,16.00
2017-06-15T00:32:39.643Z,16.00
2017-06-15T00:35:09.332Z,15.90
2017-06-15T00:37:38.994Z,15.90
2017-06-15T00:40:09.447Z,15.90
2017-06-15T00:42:39.132Z,15.90
2017-06-15T00:45:08.833Z,16.00
2017-06-15T00:47:39.287Z,16.00
2017-06-15T00:50:09.007Z,16.00
2017-06-15T00:52:38.911Z,15.90
2017-06-15T00:55:09.371Z,15.80
2017-06-15T00:57:38.734Z,15.70
2017-06-15T01:00:09.199Z,15.60
2017-06-15T01:02:38.678Z,15.60
2017-06-15T01:05:08.377Z,15.60
2017-06-15T01:07:38.832Z,15.60
2017-06-15T01:10:08.496Z,15.60
2017-06-15T01:12:38.977Z,15.50
2017-06-15T01:15:08.644Z,15.50
2017-06-15T01:17:38.909Z,15.50
2017-06-15T01:20:08.581Z,15.50
2017-06-15T01:22:39.019Z,15.50
2017-06-15T01:25:08.697Z,15.50
2017-06-15T01:27:38.399Z,15.40
2017-06-15T01:30:08.068Z,15.30
2017-06-15T01:32:37.756Z,15.30
2017-06-15T01:35:07.840Z,15.30
2017-06-15T01:37:37.536Z,15.30
2017-06-15T01:40:06.864Z,15.30
2017-06-15T01:42:36.188Z,15.30
2017-06-15T01:45:05.527Z,15.30
2017-06-15T01:47:35.188Z,15.20
2017-06-15T01:50:05.428Z,15.20
2017-06-15T01:52:34.894Z,15.20
2017-06-15T01:55:04.592Z,15.20
2017-06-15T01:57:34.260Z,15.20
2017-06-15T02:00:03.942Z,15.20
2017-06-15T02:02:34.171Z,15.00
2017-06-15T02:05:03.858Z,15.00
2017-06-15T02:07:33.538Z,15.00
2017-06-15T02:10:03.218Z,14.90
2017-06-15T02:12:32.871Z,14.90
2017-06-15T02:15:02.569Z,14.90
2017-06-15T02:17:32.228Z,14.90
2017-06-15T02:20:01.926Z,14.80
2017-06-15T02:22:31.588Z,14.80
2017-06-15T02:25:04.190Z,14.80
2017-06-15T02:27:33.850Z,14.80
2017-06-15T02:30:03.548Z,14.80
2017-06-15T02:32:33.248Z,14.70
2017-06-15T02:35:02.940Z,14.80
2017-06-15T02:37:32.613Z,14.70
2017-06-15T02:40:03.048Z,14.70
2017-06-15T02:42:32.744Z,14.70
2017-06-15T02:45:03.200Z,14.70
2017-06-15T02:47:32.677Z,14.60
2017-06-15T02:50:03.128Z,14.70
2017-06-15T02:52:32.835Z,14.70
2017-06-15T02:55:02.508Z,14.70
2017-06-15T02:57:32.199Z,14.70
2017-06-15T03:00:01.863Z,14.60
2017-06-15T03:02:31.357Z,14.60
2017-06-15T03:05:01.597Z,14.80
2017-06-15T03:07:31.268Z,14.80
2017-06-15T03:10:00.939Z,14.80
2017-06-15T03:12:30.630Z,14.90
2017-06-15T03:15:00.303Z,14.90
2017-06-15T03:17:30.027Z,14.80
2017-06-15T03:19:59.703Z,14.80
2017-06-15T03:22:29.381Z,14.80
2017-06-15T03:24:59.071Z,14.80
2017-06-15T03:27:28.734Z,14.70
2017-06-15T03:29:58.427Z,14.70
2017-06-15T03:32:28.114Z,14.70
2017-06-15T03:34:57.783Z,14.80
2017-06-15T03:37:27.443Z,14.90
2017-06-15T03:39:57.138Z,15.00
2017-06-15T03:42:26.807Z,15.20
2017-06-15T03:44:56.498Z,15.30
2017-06-15T03:47:26.170Z,15.40
2017-06-15T03:49:55.854Z,15.40
2017-06-15T03:52:25.519Z,15.50
2017-06-15T03:54:55.198Z,15.60
2017-06-15T03:57:24.893Z,15.50
2017-06-15T03:59:54.608Z,15.50
2017-06-15T04:02:24.270Z,15.50
2017-06-15T04:04:53.956Z,15.60
2017-06-15T04:07:23.632Z,15.60
2017-06-15T04:09:54.132Z,15.80
2017-06-15T04:12:23.845Z,15.80
2017-06-15T04:14:53.536Z,15.90
2017-06-15T04:17:23.248Z,16.10
2017-06-15T04:19:52.928Z,16.30
2017-06-15T04:22:22.618Z,16.40
2017-06-15T04:24:53.056Z,16.40
2017-06-15T04:27:23.530Z,16.50
2017-06-15T04:29:53.208Z,16.50
2017-06-15T04:32:22.896Z,16.60
2017-06-15T04:34:53.315Z,16.80
2017-06-15T04:37:23.783Z,16.80
2017-06-15T04:39:53.458Z,16.70
2017-06-15T04:42:23.169Z,16.90
2017-06-15T04:44:53.592Z,17.00
2017-06-15T04:47:23.288Z,17.00
2017-06-15T04:49:53.714Z,17.00
2017-06-15T04:52:23.412Z,17.00
2017-06-15T04:54:53.152Z,17.00
2017-06-15T04:57:22.836Z,17.00
2017-06-15T04:59:52.528Z,17.00
2017-06-15T05:02:22.196Z,16.90
2017-06-15T05:04:51.888Z,16.80
2017-06-15T05:07:22.324Z,16.90
2017-06-15T05:09:52.774Z,17.00
2017-06-15T05:12:22.440Z,16.90
2017-06-15T05:14:52.910Z,17.00
2017-06-15T05:17:22.578Z,17.00
2017-06-15T05:19:52.268Z,17.10
2017-06-15T05:22:21.945Z,17.20
2017-06-15T05:24:52.396Z,17.40
2017-06-15T05:27:22.063Z,17.40
2017-06-15T05:29:52.575Z,17.50
2017-06-15T05:32:22.242Z,17.60
2017-06-15T05:34:51.924Z,17.90
2017-06-15T05:37:22.357Z,18.40
2017-06-15T05:39:52.811Z,19.10
2017-06-15T05:42:22.207Z,19.10
2017-06-15T05:44:51.655Z,19.70
2017-06-15T05:47:21.825Z,20.90
2017-06-15T05:49:51.243Z,20.90
2017-06-15T05:52:20.669Z,21.30
2017-06-15T05:54:50.077Z,21.70
2017-06-15T05:57:20.275Z,22.40
2017-06-15T05:59:49.667Z,22.40
2017-06-15T06:02:19.163Z,22.70
2017-06-15T06:04:48.563Z,22.80
2017-06-15T06:07:17.985Z,23.10
2017-06-15T06:09:47.401Z,23.40
2017-06-15T06:12:16.826Z,23.40
2017-06-15T06:14:46.780Z,23.80
2017-06-15T06:17:16.204Z,23.80
2017-06-15T06:19:45.612Z,24.00
2017-06-15T06:22:15.029Z,23.70
2017-06-15T06:24:44.444Z,23.30
2017-06-15T06:27:13.868Z,23.20
2017-06-15T06:29:44.060Z,23.20
2017-06-15T06:32:13.463Z,23.20
2017-06-15T06:34:42.854Z,23.10
2017-06-15T06:37:12.247Z,23.10
2017-06-15T06:39:41.664Z,23.30
2017-06-15T06:42:11.054Z,23.50
2017-06-15T06:44:40.483Z,23.60
2017-06-15T06:47:09.884Z,23.80
2017-06-15T06:49:39.308Z,24.30
2017-06-15T06:52:09.478Z,24.70
2017-06-15T06:54:38.901Z,24.70
2017-06-15T06:57:08.295Z,24.60
2017-06-15T06:59:37.747Z,24.60
2017-06-15T07:02:07.913Z,24.60
2017-06-15T07:04:37.338Z,24.60
2017-06-15T07:07:06.732Z,24.60
2017-06-15T07:09:36.153Z,24.50
2017-06-15T07:12:05.576Z,24.70
2017-06-15T07:14:35.776Z,24.60
2017-06-15T07:17:05.183Z,24.60
2017-06-15T07:19:34.580Z,24.70
2017-06-15T07:22:03.990Z,25.10
2017-06-15T07:24:33.392Z,25.20
2017-06-15T07:27:02.819Z,25.50
2017-06-15T07:29:33.032Z,25.50
2017-06-15T07:32:02.439Z,25.50
2017-06-15T07:34:32.619Z,25.50
2017-06-15T07:37:02.018Z,25.50
2017-06-15T07:39:31.429Z,25.20
2017-06-15T07:42:00.839Z,25.00
2017-06-15T07:44:30.247Z,25.10
2017-06-15T07:46:59.658Z,25.50
2017-06-15T07:49:29.060Z,26.00
2017-06-15T07:51:58.476Z,26.40
2017-06-15T07:54:28.643Z,26.40
2017-06-15T07:56:58.109Z,26.40
2017-06-15T07:59:28.265Z,26.60
2017-06-15T08:01:57.684Z,26.50
2017-06-15T08:04:27.113Z,26.60
2017-06-15T08:06:56.521Z,26.00
2017-06-15T08:09:25.924Z,26.20
2017-06-15T08:11:55.322Z,26.30
2017-06-15T08:14:24.752Z,26.60
2017-06-15T08:16:54.923Z,26.80
2017-06-15T08:19:24.339Z,26.70
2017-06-15T08:21:53.735Z,27.40
2017-06-15T08:24:23.263Z,27.90
2017-06-15T08:26:52.646Z,27.90
2017-06-15T08:29:22.071Z,28.00
2017-06-15T08:31:51.475Z,27.70
2017-06-15T08:34:20.898Z,27.60
2017-06-15T08:36:50.295Z,27.30
2017-06-15T08:39:19.705Z,27.20
2017-06-15T08:41:49.099Z,27.10
2017-06-15T08:44:29.043Z,27.30
2017-06-15T08:46:58.431Z,27.70
2017-06-15T08:49:27.847Z,27.90
2017-06-15T08:51:57.245Z,28.60
2017-06-15T08:54:26.639Z,28.60
2017-06-15T08:56:55.889Z,28.20
2017-06-15T08:59:25.284Z,28.40
2017-06-15T09:01:54.716Z,28.30
2017-06-15T09:04:24.139Z,28.50
2017-06-15T09:06:53.556Z,29.20
2017-06-15T09:09:22.967Z,29.10
2017-06-15T09:11:52.384Z,28.90
2017-06-15T09:14:21.803Z,28.30
2017-06-15T09:16:51.224Z,28.50
2017-06-15T09:19:20.615Z,28.80
2017-06-15T09:21:50.048Z,29.50
2017-06-15T09:24:19.448Z,30.20
2017-06-15T09:26:48.858Z,30.00
2017-06-15T09:29:19.038Z,29.30
2017-06-15T09:31:48.457Z,29.30
2017-06-15T09:34:17.847Z,29.10
2017-06-15T09:36:47.279Z,28.90
2017-06-15T09:39:16.679Z,29.80
2017-06-15T09:41:46.099Z,30.00
2017-06-15T09:44:15.505Z,29.80
2017-06-15T09:46:45.688Z,29.80
2017-06-15T09:49:15.125Z,29.70
2017-06-15T09:51:45.298Z,31.20
2017-06-15T09:54:14.518Z,31.10
2017-06-15T09:56:43.929Z,31.40
2017-06-15T09:59:13.144Z,32.00
2017-06-15T10:01:43.311Z,31.30
2017-06-15T10:04:12.740Z,31.30
2017-06-15T10:06:42.170Z,31.50
2017-06-15T10:09:11.578Z,31.50
2017-06-15T10:11:41.008Z,31.90
2017-06-15T10:14:10.427Z,31.70
2017-06-15T10:16:39.826Z,31.70
2017-06-15T10:19:09.239Z,32.00
2017-06-15T10:21:38.635Z,32.10
2017-06-15T10:24:08.048Z,31.60
2017-06-15T10:26:37.476Z,32.10
2017-06-15T10:29:06.868Z,32.60
2017-06-15T10:31:36.279Z,32.60
2017-06-15T10:34:05.696Z,32.30
2017-06-15T10:36:35.113Z,31.60
2017-06-15T10:39:03.631Z,30.70
2017-06-15T10:41:33.049Z,30.50
2017-06-15T10:44:02.452Z,30.50
2017-06-15T10:46:31.865Z,31.10
2017-06-15T10:49:01.252Z,31.20
2017-06-15T10:51:30.722Z,31.40
2017-06-15T10:54:00.886Z,33.60
2017-06-15T10:56:30.295Z,33.50
2017-06-15T10:58:59.714Z,34.50
2017-06-15T11:01:29.191Z,34.40
2017-06-15T11:03:58.583Z,34.60
2017-06-15T11:06:27.985Z,34.90
2017-06-15T11:08:57.404Z,34.40
2017-06-15T11:11:26.832Z,34.50
2017-06-15T11:13:56.271Z,34.10
2017-06-15T11:16:25.672Z,34.90
2017-06-15T11:18:55.103Z,34.90
2017-06-15T11:21:24.515Z,35.10
2017-06-15T11:23:53.941Z,34.40
2017-06-15T11:26:23.332Z,35.50
2017-06-15T11:28:53.520Z,35.50
2017-06-15T11:31:22.922Z,35.50
2017-06-15T11:33:52.330Z,35.30
2017-06-15T11:36:21.766Z,35.20
2017-06-15T11:38:51.188Z,34.30
2017-06-15T11:41:21.344Z,32.70
2017-06-15T11:43:50.767Z,32.70
2017-06-15T11:46:20.171Z,32.70
2017-06-15T11:48:49.586Z,32.60
2017-06-15T11:51:19.005Z,33.20
2017-06-15T11:53:48.415Z,34.00
2017-06-15T11:56:18.584Z,33.70
2017-06-15T11:58:47.998Z,33.70
2017-06-15T12:01:17.401Z,34.00
2017-06-15T12:03:46.817Z,35.70
2017-06-15T12:06:16.212Z,36.40
2017-06-15T12:08:45.668Z,37.00
2017-06-15T12:11:15.827Z,36.10
2017-06-15T12:13:45.255Z,36.00
2017-06-15T12:16:14.639Z,34.50
2017-06-15T12:18:44.148Z,34.70
2017-06-15T12:21:13.574Z,35.50
2017-06-15T12:23:42.972Z,35.50
2017-06-15T12:26:12.375Z,35.90
2017-06-15T12:28:41.778Z,35.80
2017-06-15T12:31:11.293Z,36.30
2017-06-15T12:33:40.675Z,37.30
2017-06-15T12:36:09.896Z,36.90
2017-06-15T12:38:39.303Z,35.30
2017-06-15T12:41:08.756Z,34.90
2017-06-15T12:43:38.152Z,35.40
2017-06-15T12:46:07.564Z,35.70
2017-06-15T12:48:36.956Z,36.50
2017-06-15T12:51:06.379Z,36.10
2017-06-15T12:53:35.772Z,36.00
2017-06-15T12:56:05.323Z,35.60
2017-06-15T12:58:34.711Z,35.60
2017-06-15T13:01:04.129Z,36.20
2017-06-15T13:03:33.522Z,36.00
2017-06-15T13:06:02.942Z,35.80
2017-06-15T13:08:32.335Z,36.10
2017-06-15T13:11:01.753Z,35.90
2017-06-15T13:13:31.147Z,35.60
2017-06-15T13:16:00.554Z,36.30
2017-06-15T13:18:29.615Z,36.90
2017-06-15T13:20:59.031Z,36.90
2017-06-15T13:23:28.438Z,36.20
2017-06-15T13:25:57.843Z,36.00
2017-06-15T13:28:27.260Z,36.40
2017-06-15T13:30:56.680Z,35.60
2017-06-15T13:33:26.091Z,35.20
2017-06-15T13:35:55.491Z,34.70
2017-06-15T13:38:24.923Z,35.00
2017-06-15T13:40:54.306Z,34.80
2017-06-15T13:43:23.821Z,34.70
2017-06-15T13:45:53.260Z,35.30
2017-06-15T13:48:22.662Z,34.90
2017-06-15T13:50:52.078Z,35.70
2017-06-15T13:53:21.492Z,35.00
2017-06-15T13:55:50.885Z,34.90
2017-06-15T13:58:20.295Z,34.60
2017-06-15T14:00:49.745Z,34.40
2017-06-15T14:03:19.155Z,34.40
2017-06-15T14:05:48.572Z,34.40
2017-06-15T14:08:17.971Z,34.90
2017-06-15T14:10:47.383Z,35.00
2017-06-15T14:13:17.547Z,35.60
2017-06-15T14:15:46.959Z,35.60
2017-06-15T14:18:16.351Z,35.30
2017-06-15T14:20:45.765Z,35.50
2017-06-15T14:23:15.177Z,34.90
2017-06-15T14:25:44.584Z,34.20
2017-06-15T14:28:13.784Z,33.70
2017-06-15T14:30:43.205Z,33.50
2017-06-15T14:33:12.597Z,32.70
2017-06-15T14:35:42.011Z,32.10
2017-06-15T14:38:11.415Z,31.40
2017-06-15T14:40:40.824Z,31.20
2017-06-15T14:43:11.002Z,30.70
2017-06-15T14:45:40.410Z,30.60
2017-06-15T14:48:09.814Z,30.40
2017-06-15T14:50:39.227Z,30.00
2017-06-15T14:53:08.682Z,29.80
2017-06-15T14:55:38.072Z,29.90
2017-06-15T14:58:08.251Z,29.80
2017-06-15T15:00:37.652Z,29.80
2017-06-15T15:03:06.876Z,30.00
2017-06-15T15:05:36.271Z,29.90
2017-06-15T15:08:05.683Z,29.80
2017-06-15T15:10:34.885Z,29.60
2017-06-15T15:13:04.359Z,29.10
2017-06-15T15:15:33.814Z,29.00
2017-06-15T15:18:03.983Z,29.10
2017-06-15T15:20:33.405Z,29.10
2017-06-15T15:23:02.828Z,29.30
2017-06-15T15:25:33.021Z,29.10
2017-06-15T15:28:02.433Z,29.10
2017-06-15T15:30:31.843Z,29.00
2017-06-15T15:33:01.272Z,28.90
2017-06-15T15:35:31.447Z,28.90
2017-06-15T15:38:00.844Z,28.90
2017-06-15T15:40:30.265Z,28.90
2017-06-15T15:42:59.706Z,28.90
2017-06-15T15:45:29.127Z,29.00
2017-06-15T15:47:58.553Z,28.90
2017-06-15T15:50:27.980Z,28.80
2017-06-15T15:52:57.375Z,28.80
2017-06-15T15:55:26.784Z,28.80
2017-06-15T15:57:56.955Z,28.60
2017-06-15T16:00:26.396Z,28.50
2017-06-15T16:02:55.794Z,28.60
2017-06-15T16:05:25.237Z,28.60
2017-06-15T16:07:55.397Z,28.70
2017-06-15T16:10:24.849Z,28.70
2017-06-15T16:12:55.003Z,28.60
2017-06-15T16:15:24.433Z,28.60
2017-06-15T16:17:53.842Z,28.70
2017-06-15T16:20:23.301Z,28.70
2017-06-15T16:22:52.776Z,28.70
2017-06-15T16:25:22.327Z,28.80
2017-06-15T16:27:51.747Z,28.80
2017-06-15T16:30:21.178Z,28.90
2017-06-15T16:32:50.605Z,28.90
2017-06-15T16:35:20.011Z,28.90
2017-06-15T16:37:49.441Z,28.90
2017-06-15T16:40:18.864Z,28.80
2017-06-15T16:42:49.076Z,28.70
2017-06-15T16:45:18.168Z,28.60
2017-06-15T16:47:47.607Z,28.70
2017-06-15T16:50:17.049Z,28.70
2017-06-15T16:52:46.500Z,28.50
2017-06-15T16:55:15.923Z,28.50
2017-06-15T16:57:45.652Z,28.40
2017-06-15T17:00:15.054Z,28.20
2017-06-15T17:02:44.289Z,28.10
2017-06-15T17:05:13.705Z,28.00
2017-06-15T17:07:43.118Z,27.90
2017-06-15T17:10:12.544Z,27.90
2017-06-15T17:12:42.703Z,27.80
2017-06-15T17:15:12.166Z,27.80
2017-06-15T17:17:41.572Z,27.80
2017-06-15T17:20:10.803Z,27.70
2017-06-15T17:22:40.219Z,27.70
2017-06-15T17:25:10.411Z,27.70
2017-06-15T17:27:39.811Z,27.70
2017-06-15T17:30:09.236Z,27.70
2017-06-15T17:32:39.205Z,27.60
2017-06-15T17:35:08.619Z,27.60
2017-06-15T17:37:38.051Z,27.70
2017-06-15T17:40:07.500Z,27.80
2017-06-15T17:42:36.913Z,27.80
2017-06-15T17:45:06.341Z,27.80
2017-06-15T17:47:36.512Z,27.80
2017-06-15T17:50:05.927Z,27.80
2017-06-15T17:52:35.351Z,27.90
2017-06-15T17:55:04.738Z,27.80
2017-06-15T17:57:34.147Z,27.80
2017-06-15T18:00:03.196Z,27.60
2017-06-15T18:02:32.621Z,27.50
2017-06-15T18:05:02.021Z,27.40
2017-06-15T18:07:31.440Z,27.20
2017-06-15T18:10:00.835Z,27.10
2017-06-15T18:12:30.251Z,26.90
2017-06-15T18:14:59.693Z,26.80
2017-06-15T18:17:29.872Z,26.70
2017-06-15T18:19:59.305Z,26.70
2017-06-15T18:22:28.720Z,26.70
2017-06-15T18:24:58.888Z,26.60
2017-06-15T18:27:28.309Z,26.60
2017-06-15T18:29:57.713Z,26.70
2017-06-15T18:32:27.127Z,26.60
2017-06-15T18:34:56.548Z,26.70
2017-06-15T18:37:25.953Z,26.70
2017-06-15T18:39:56.144Z,26.50
2017-06-15T18:42:25.538Z,26.50
2017-06-15T18:44:54.972Z,26.40
2017-06-15T18:47:24.372Z,26.40
2017-06-15T18:49:53.808Z,26.30
2017-06-15T18:52:23.220Z,26.30
2017-06-15T18:54:52.638Z,26.20
2017-06-15T18:57:22.049Z,26.20
2017-06-15T18:59:51.485Z,26.10
2017-06-15T19:02:20.888Z,26.00
2017-06-15T19:04:50.308Z,26.00
2017-06-15T19:07:20.480Z,25.90
2017-06-15T19:09:49.888Z,25.90
2017-06-15T19:12:19.305Z,25.80
2017-06-15T19:14:48.764Z,25.70
2017-06-15T19:17:18.175Z,25.70
2017-06-15T19:19:47.644Z,25.50
2017-06-15T19:22:17.035Z,25.50
2017-06-15T19:24:46.434Z,25.50
2017-06-15T19:27:16.106Z,25.40
2017-06-15T19:29:46.360Z,25.30
2017-06-15T19:32:15.788Z,25.30
2017-06-15T19:34:45.183Z,25.20
2017-06-15T19:37:15.411Z,25.20
2017-06-15T19:39:45.573Z,25.10
2017-06-15T19:42:14.996Z,25.10
2017-06-15T19:44:44.422Z,25.00
2017-06-15T19:47:13.863Z,24.90
2017-06-15T19:49:43.272Z,24.90
2017-06-15T19:52:12.692Z,24.90
2017-06-15T19:54:42.094Z,24.70
2017-06-15T19:57:11.520Z,24.60
2017-06-15T19:59:40.924Z,24.60
2017-06-15T20:02:10.344Z,24.50
2017-06-15T20:04:39.736Z,24.40
2017-06-15T20:07:09.214Z,24.10
2017-06-15T20:09:38.623Z,24.10
2017-06-15T20:12:08.028Z,24.00
2017-06-15T20:14:37.451Z,23.90
2017-06-15T20:17:06.843Z,23.90
2017-06-15T20:19:36.261Z,24.00
2017-06-15T20:22:05.471Z,24.00
2017-06-15T20:24:52.597Z,24.00
2017-06-15T20:27:22.101Z,24.00
2017-06-15T20:29:57.131Z,24.00
2017-06-15T20:32:26.346Z,23.90
2017-06-15T20:34:56.330Z,23.80
2017-06-15T20:37:25.732Z,23.80
2017-06-15T20:39:55.152Z,23.80
2017-06-15T20:42:24.548Z,23.80
2017-06-15T20:44:53.975Z,23.80
2017-06-15T20:47:24.143Z,23.80
2017-06-15T20:49:53.561Z,23.80
2017-06-15T20:52:22.963Z,23.80
2017-06-15T20:54:52.383Z,23.70
2017-06-15T20:57:21.788Z,23.70
2017-06-15T20:59:51.197Z,23.70
2017-06-15T21:02:20.591Z,23.70
2017-06-15T21:04:49.982Z,23.80
2017-06-15T21:07:19.400Z,23.80
2017-06-15T21:09:49.567Z,23.70
2017-06-15T21:12:19.006Z,23.70
2017-06-15T21:14:48.421Z,23.70
2017-06-15T21:17:18.608Z,23.70
2017-06-15T21:19:48.772Z,23.70
2017-06-15T21:22:18.196Z,23.60
2017-06-15T21:24:47.607Z,23.60
2017-06-15T21:27:16.671Z,23.50
2017-06-15T21:29:46.069Z,23.60
2017-06-15T21:32:16.244Z,23.50
2017-06-15T21:34:45.645Z,23.50
2017-06-15T21:37:15.066Z,23.50
2017-06-15T21:39:44.468Z,23.50
2017-06-15T21:42:13.887Z,23.50
2017-06-15T21:44:43.294Z,23.50
2017-06-15T21:47:13.480Z,23.30
2017-06-15T21:49:42.896Z,23.30
2017-06-15T21:52:12.286Z,23.30
2017-06-15T21:54:41.705Z,23.20
2017-06-15T21:57:11.106Z,23.20
2017-06-15T21:59:40.540Z,23.00
2017-06-15T22:02:10.733Z,22.90
2017-06-15T22:04:40.147Z,22.80
2017-06-15T22:07:10.319Z,22.50
2017-06-15T22:09:39.740Z,22.50
2017-06-15T22:12:09.162Z,22.40
2017-06-15T22:14:38.584Z,22.20
2017-06-15T22:17:08.758Z,22.10
2017-06-15T22:19:38.182Z,22.00
2017-06-15T22:22:07.588Z,21.90
2017-06-15T22:24:37.015Z,21.80
2017-06-15T22:27:06.428Z,21.60
2017-06-15T22:29:36.614Z,21.30
2017-06-15T22:32:06.046Z,21.20
2017-06-15T22:34:35.439Z,21.00
2017-06-15T22:37:04.865Z,20.80
2017-06-15T22:39:34.300Z,20.50
2017-06-15T22:42:03.714Z,20.20
2017-06-15T22:44:33.146Z,19.90
2017-06-15T22:47:02.365Z,19.80
2017-06-15T22:49:31.783Z,19.60
2017-06-15T22:52:01.203Z,19.40
2017-06-15T22:54:30.643Z,19.10
2017-06-15T22:57:00.332Z,19.00
2017-06-15T22:59:30.055Z,18.90
2017-06-15T23:01:59.814Z,18.80
2017-06-15T23:04:29.283Z,18.90
2017-06-15T23:06:59.746Z,18.90
2017-06-15T23:09:29.159Z,18.90
2017-06-15T23:11:58.933Z,19.00
2017-06-15T23:14:28.678Z,18.90
2017-06-15T23:16:59.767Z,18.80
2017-06-15T23:19:30.348Z,18.80
2017-06-15T23:22:00.045Z,18.80
2017-06-15T23:24:29.724Z,18.80
2017-06-15T23:27:00.200Z,18.80
2017-06-15T23:29:29.903Z,18.80
2017-06-15T23:32:00.362Z,18.90
2017-06-15T23:34:30.180Z,18.80
2017-06-15T23:36:59.885Z,18.90
2017-06-15T23:39:29.298Z,18.90
2017-06-15T23:41:59.628Z,18.80
2017-06-15T23:44:29.324Z,18.80
2017-06-15T23:46:58.992Z,18.80
2017-06-15T23:49:29.451Z,18.80
2017-06-15T23:51:59.144Z,18.80
2017-06-15T23:54:28.840Z,18.70
2017-06-15T23:56:58.255Z,18.70
2017-06-15T23:59:27.965Z,18.70
